sensor_id;sensor_type;location;lat;lon;timestamp;P1;durP1;ratioP1;P2;durP2;ratioP2
20689;SDS011;10504;48.762;8.996;2023-11-19T00:00:16;3.40;;;3.20;;
20689;SDS011;10504;48.762;8.996;2023-11-19T00:02:42;3.47;;;3.27;;
20689;SDS011;10504;48.762;8.996;2023-11-19T00:05:08;3.70;;;3.50;;
20689;SDS011;10504;48.762;8.996;2023-11-19T00:07:36;3.70;;;3.50;;
20689;SDS011;10504;48.762;8.996;2023-11-19T00:10:06;3.80;;;3.60;;
20689;SDS011;10504;48.762;8.996;2023-11-19T00:12:42;3.83;;;3.63;;
20689;SDS011;10504;48.762;8.996;2023-11-19T00:15:09;3.77;;;3.57;;
20689;SDS011;10504;48.762;8.996;2023-11-19T00:17:39;3.70;;;3.50;;
20689;SDS011;10504;48.762;8.996;2023-11-19T00:20:07;4.10;;;3.80;;
20689;SDS011;10504;48.762;8.996;2023-11-19T00:22:33;3.90;;;3.70;;
20689;SDS011;10504;48.762;8.996;2023-11-19T00:24:59;3.80;;;3.60;;
20689;SDS011;10504;48.762;8.996;2023-11-19T00:27:25;3.80;;;3.60;;
20689;SDS011;10504;48.762;8.996;2023-11-19T00:29:51;4.00;;;3.80;;
20689;SDS011;10504;48.762;8.996;2023-11-19T00:32:16;4.00;;;3.80;;
20689;SDS011;10504;48.762;8.996;2023-11-19T00:34:45;4.00;;;3.80;;
20689;SDS011;10504;48.762;8.996;2023-11-19T00:37:12;4.20;;;4.00;;
20689;SDS011;10504;48.762;8.996;2023-11-19T00:39:38;4.70;;;4.40;;
20689;SDS011;10504;48.762;8.996;2023-11-19T00:42:04;4.30;;;4.10;;
20689;SDS011;10504;48.762;8.996;2023-11-19T00:44:30;4.30;;;4.10;;
20689;SDS011;10504;48.762;8.996;2023-11-19T00:46:56;4.23;;;4.03;;
20689;SDS011;10504;48.762;8.996;2023-11-19T00:49:21;4.60;;;4.30;;
20689;SDS011;10504;48.762;8.996;2023-11-19T00:51:47;4.63;;;4.33;;
20689;SDS011;10504;48.762;8.996;2023-11-19T00:54:12;4.50;;;4.30;;
20689;SDS011;10504;48.762;8.996;2023-11-19T00:56:38;4.80;;;4.50;;
20689;SDS011;10504;48.762;8.996;2023-11-19T00:59:04;4.43;;;4.23;;
20689;SDS011;10504;48.762;8.996;2023-11-19T01:01:30;5.50;;;5.13;;
20689;SDS011;10504;48.762;8.996;2023-11-19T01:03:56;4.87;;;4.57;;
20689;SDS011;10504;48.762;8.996;2023-11-19T01:06:28;4.80;;;4.50;;
20689;SDS011;10504;48.762;8.996;2023-11-19T01:08:57;5.50;;;5.10;;
20689;SDS011;10504;48.762;8.996;2023-11-19T01:11:23;4.90;;;4.60;;
20689;SDS011;10504;48.762;8.996;2023-11-19T01:13:50;5.37;;;5.07;;
20689;SDS011;10504;48.762;8.996;2023-11-19T01:16:16;5.03;;;4.73;;
20689;SDS011;10504;48.762;8.996;2023-11-19T01:18:41;5.10;;;4.80;;
20689;SDS011;10504;48.762;8.996;2023-11-19T01:21:07;5.63;;;5.20;;
20689;SDS011;10504;48.762;8.996;2023-11-19T01:23:33;5.43;;;5.10;;
20689;SDS011;10504;48.762;8.996;2023-11-19T01:25:59;4.90;;;4.60;;
20689;SDS011;10504;48.762;8.996;2023-11-19T01:28:25;5.20;;;4.90;;
20689;SDS011;10504;48.762;8.996;2023-11-19T01:30:51;5.33;;;5.03;;
20689;SDS011;10504;48.762;8.996;2023-11-19T01:33:17;5.30;;;5.00;;
20689;SDS011;10504;48.762;8.996;2023-11-19T01:35:42;5.27;;;4.97;;
20689;SDS011;10504;48.762;8.996;2023-11-19T01:38:08;5.67;;;5.37;;
20689;SDS011;10504;48.762;8.996;2023-11-19T01:40:34;5.47;;;5.17;;
20689;SDS011;10504;48.762;8.996;2023-11-19T01:43:01;5.70;;;5.40;;
20689;SDS011;10504;48.762;8.996;2023-11-19T01:45:28;5.80;;;5.50;;
20689;SDS011;10504;48.762;8.996;2023-11-19T01:47:59;5.50;;;5.20;;
20689;SDS011;10504;48.762;8.996;2023-11-19T01:50:30;5.80;;;5.50;;
20689;SDS011;10504;48.762;8.996;2023-11-19T01:52:58;5.90;;;5.60;;
20689;SDS011;10504;48.762;8.996;2023-11-19T01:55:24;6.20;;;5.80;;
20689;SDS011;10504;48.762;8.996;2023-11-19T01:57:52;5.80;;;5.50;;
20689;SDS011;10504;48.762;8.996;2023-11-19T02:00:23;5.73;;;5.43;;
20689;SDS011;10504;48.762;8.996;2023-11-19T02:02:49;6.30;;;5.90;;
20689;SDS011;10504;48.762;8.996;2023-11-19T02:05:17;6.30;;;5.90;;
20689;SDS011;10504;48.762;8.996;2023-11-19T02:07:42;6.30;;;5.90;;
20689;SDS011;10504;48.762;8.996;2023-11-19T02:10:08;6.40;;;6.00;;
20689;SDS011;10504;48.762;8.996;2023-11-19T02:12:39;6.47;;;6.07;;
20689;SDS011;10504;48.762;8.996;2023-11-19T02:15:08;6.37;;;5.97;;
20689;SDS011;10504;48.762;8.996;2023-11-19T02:17:34;6.60;;;6.20;;
20689;SDS011;10504;48.762;8.996;2023-11-19T02:20:02;6.30;;;5.90;;
20689;SDS011;10504;48.762;8.996;2023-11-19T02:22:36;6.67;;;6.27;;
20689;SDS011;10504;48.762;8.996;2023-11-19T02:25:04;6.60;;;6.20;;
20689;SDS011;10504;48.762;8.996;2023-11-19T02:27:46;6.50;;;6.10;;
20689;SDS011;10504;48.762;8.996;2023-11-19T02:30:22;6.40;;;6.00;;
20689;SDS011;10504;48.762;8.996;2023-11-19T02:32:51;6.70;;;6.30;;
20689;SDS011;10504;48.762;8.996;2023-11-19T02:35:19;6.70;;;6.30;;
20689;SDS011;10504;48.762;8.996;2023-11-19T02:37:46;6.70;;;6.30;;
20689;SDS011;10504;48.762;8.996;2023-11-19T02:40:12;6.77;;;6.37;;
20689;SDS011;10504;48.762;8.996;2023-11-19T02:42:38;7.00;;;6.60;;
20689;SDS011;10504;48.762;8.996;2023-11-19T02:45:04;7.20;;;6.80;;
20689;SDS011;10504;48.762;8.996;2023-11-19T02:47:32;7.20;;;6.80;;
20689;SDS011;10504;48.762;8.996;2023-11-19T02:49:58;7.00;;;6.60;;
20689;SDS011;10504;48.762;8.996;2023-11-19T02:52:24;7.03;;;6.63;;
20689;SDS011;10504;48.762;8.996;2023-11-19T02:54:50;7.10;;;6.70;;
20689;SDS011;10504;48.762;8.996;2023-11-19T02:57:16;7.00;;;6.60;;
20689;SDS011;10504;48.762;8.996;2023-11-19T02:59:44;6.90;;;6.50;;
20689;SDS011;10504;48.762;8.996;2023-11-19T03:02:10;7.10;;;6.70;;
20689;SDS011;10504;48.762;8.996;2023-11-19T03:04:37;7.17;;;6.77;;
20689;SDS011;10504;48.762;8.996;2023-11-19T03:07:09;7.20;;;6.80;;
20689;SDS011;10504;48.762;8.996;2023-11-19T03:09:34;6.97;;;6.57;;
20689;SDS011;10504;48.762;8.996;2023-11-19T03:12:00;7.73;;;7.23;;
20689;SDS011;10504;48.762;8.996;2023-11-19T03:14:27;7.73;;;7.23;;
20689;SDS011;10504;48.762;8.996;2023-11-19T03:16:52;7.60;;;7.10;;
20689;SDS011;10504;48.762;8.996;2023-11-19T03:19:18;7.63;;;7.13;;
20689;SDS011;10504;48.762;8.996;2023-11-19T03:21:44;7.33;;;6.93;;
20689;SDS011;10504;48.762;8.996;2023-11-19T03:24:10;7.23;;;6.83;;
20689;SDS011;10504;48.762;8.996;2023-11-19T03:26:38;7.60;;;7.10;;
20689;SDS011;10504;48.762;8.996;2023-11-19T03:29:04;7.20;;;6.80;;
20689;SDS011;10504;48.762;8.996;2023-11-19T03:31:29;7.30;;;6.90;;
20689;SDS011;10504;48.762;8.996;2023-11-19T03:33:55;7.60;;;7.10;;
20689;SDS011;10504;48.762;8.996;2023-11-19T03:36:21;7.70;;;7.20;;
20689;SDS011;10504;48.762;8.996;2023-11-19T03:38:47;7.60;;;7.10;;
20689;SDS011;10504;48.762;8.996;2023-11-19T03:41:13;7.80;;;7.30;;
20689;SDS011;10504;48.762;8.996;2023-11-19T03:43:39;7.90;;;7.40;;
20689;SDS011;10504;48.762;8.996;2023-11-19T03:46:15;7.90;;;7.40;;
20689;SDS011;10504;48.762;8.996;2023-11-19T03:48:44;7.70;;;7.20;;
20689;SDS011;10504;48.762;8.996;2023-11-19T03:51:11;7.60;;;7.10;;
20689;SDS011;10504;48.762;8.996;2023-11-19T03:53:40;7.70;;;7.20;;
20689;SDS011;10504;48.762;8.996;2023-11-19T03:56:14;7.33;;;6.93;;
20689;SDS011;10504;48.762;8.996;2023-11-19T03:58:40;7.47;;;7.00;;
20689;SDS011;10504;48.762;8.996;2023-11-19T04:01:06;7.30;;;6.90;;
20689;SDS011;10504;48.762;8.996;2023-11-19T04:03:38;7.50;;;7.00;;
20689;SDS011;10504;48.762;8.996;2023-11-19T04:06:04;7.70;;;7.20;;
20689;SDS011;10504;48.762;8.996;2023-11-19T04:08:29;7.50;;;7.00;;
20689;SDS011;10504;48.762;8.996;2023-11-19T04:10:55;7.50;;;7.00;;
20689;SDS011;10504;48.762;8.996;2023-11-19T04:13:21;7.30;;;6.90;;
20689;SDS011;10504;48.762;8.996;2023-11-19T04:15:48;7.30;;;6.90;;
20689;SDS011;10504;48.762;8.996;2023-11-19T04:18:14;7.30;;;6.90;;
20689;SDS011;10504;48.762;8.996;2023-11-19T04:20:40;7.27;;;6.87;;
20689;SDS011;10504;48.762;8.996;2023-11-19T04:23:07;7.60;;;7.10;;
20689;SDS011;10504;48.762;8.996;2023-11-19T04:25:33;7.67;;;7.17;;
20689;SDS011;10504;48.762;8.996;2023-11-19T04:27:59;7.60;;;7.10;;
20689;SDS011;10504;48.762;8.996;2023-11-19T04:30:25;7.30;;;6.90;;
20689;SDS011;10504;48.762;8.996;2023-11-19T04:32:51;7.60;;;7.10;;
20689;SDS011;10504;48.762;8.996;2023-11-19T04:35:16;7.60;;;7.10;;
20689;SDS011;10504;48.762;8.996;2023-11-19T04:37:44;7.70;;;7.20;;
20689;SDS011;10504;48.762;8.996;2023-11-19T04:40:09;7.80;;;7.30;;
20689;SDS011;10504;48.762;8.996;2023-11-19T04:42:37;7.70;;;7.20;;
20689;SDS011;10504;48.762;8.996;2023-11-19T04:45:05;7.80;;;7.30;;
20689;SDS011;10504;48.762;8.996;2023-11-19T04:47:32;7.90;;;7.40;;
20689;SDS011;10504;48.762;8.996;2023-11-19T04:49:58;7.80;;;7.30;;
20689;SDS011;10504;48.762;8.996;2023-11-19T04:52:24;8.10;;;7.60;;
20689;SDS011;10504;48.762;8.996;2023-11-19T04:54:49;8.00;;;7.50;;
20689;SDS011;10504;48.762;8.996;2023-11-19T04:57:15;7.90;;;7.40;;
20689;SDS011;10504;48.762;8.996;2023-11-19T04:59:41;7.70;;;7.20;;
20689;SDS011;10504;48.762;8.996;2023-11-19T05:02:08;7.87;;;7.37;;
20689;SDS011;10504;48.762;8.996;2023-11-19T05:04:33;7.90;;;7.40;;
20689;SDS011;10504;48.762;8.996;2023-11-19T05:07:00;7.70;;;7.20;;
20689;SDS011;10504;48.762;8.996;2023-11-19T05:09:25;7.47;;;7.00;;
20689;SDS011;10504;48.762;8.996;2023-11-19T05:11:51;8.00;;;7.50;;
20689;SDS011;10504;48.762;8.996;2023-11-19T05:14:17;7.77;;;7.27;;
20689;SDS011;10504;48.762;8.996;2023-11-19T05:16:45;7.70;;;7.20;;
20689;SDS011;10504;48.762;8.996;2023-11-19T05:19:10;7.73;;;7.23;;
20689;SDS011;10504;48.762;8.996;2023-11-19T05:21:36;7.80;;;7.30;;
20689;SDS011;10504;48.762;8.996;2023-11-19T05:24:02;7.60;;;7.10;;
20689;SDS011;10504;48.762;8.996;2023-11-19T05:26:31;7.30;;;6.90;;
20689;SDS011;10504;48.762;8.996;2023-11-19T05:28:56;7.30;;;6.90;;
20689;SDS011;10504;48.762;8.996;2023-11-19T05:31:22;7.80;;;7.30;;
20689;SDS011;10504;48.762;8.996;2023-11-19T05:33:48;7.80;;;7.30;;
20689;SDS011;10504;48.762;8.996;2023-11-19T05:36:13;7.60;;;7.10;;
20689;SDS011;10504;48.762;8.996;2023-11-19T05:38:39;7.70;;;7.20;;
20689;SDS011;10504;48.762;8.996;2023-11-19T05:41:05;7.80;;;7.30;;
20689;SDS011;10504;48.762;8.996;2023-11-19T05:43:31;7.63;;;7.13;;
20689;SDS011;10504;48.762;8.996;2023-11-19T05:45:57;7.70;;;7.20;;
20689;SDS011;10504;48.762;8.996;2023-11-19T05:48:24;7.53;;;7.03;;
20689;SDS011;10504;48.762;8.996;2023-11-19T05:50:51;7.80;;;7.30;;
20689;SDS011;10504;48.762;8.996;2023-11-19T05:53:19;7.63;;;7.13;;
20689;SDS011;10504;48.762;8.996;2023-11-19T05:55:45;7.60;;;7.10;;
20689;SDS011;10504;48.762;8.996;2023-11-19T05:58:14;7.70;;;7.20;;
20689;SDS011;10504;48.762;8.996;2023-11-19T06:00:40;7.50;;;7.00;;
20689;SDS011;10504;48.762;8.996;2023-11-19T06:03:09;7.70;;;7.20;;
20689;SDS011;10504;48.762;8.996;2023-11-19T06:05:35;7.50;;;7.00;;
20689;SDS011;10504;48.762;8.996;2023-11-19T06:08:01;7.30;;;6.90;;
20689;SDS011;10504;48.762;8.996;2023-11-19T06:10:26;7.30;;;6.90;;
20689;SDS011;10504;48.762;8.996;2023-11-19T06:12:58;7.30;;;6.90;;
20689;SDS011;10504;48.762;8.996;2023-11-19T06:15:27;7.30;;;6.90;;
20689;SDS011;10504;48.762;8.996;2023-11-19T06:17:53;7.40;;;7.00;;
20689;SDS011;10504;48.762;8.996;2023-11-19T06:20:20;7.30;;;6.90;;
20689;SDS011;10504;48.762;8.996;2023-11-19T06:22:46;7.40;;;7.00;;
20689;SDS011;10504;48.762;8.996;2023-11-19T06:25:12;7.50;;;7.00;;
20689;SDS011;10504;48.762;8.996;2023-11-19T06:27:40;7.70;;;7.20;;
20689;SDS011;10504;48.762;8.996;2023-11-19T06:30:06;7.70;;;7.20;;
20689;SDS011;10504;48.762;8.996;2023-11-19T06:32:32;7.80;;;7.30;;
20689;SDS011;10504;48.762;8.996;2023-11-19T06:34:58;7.30;;;6.90;;
20689;SDS011;10504;48.762;8.996;2023-11-19T06:37:23;7.53;;;7.03;;
20689;SDS011;10504;48.762;8.996;2023-11-19T06:39:49;7.43;;;7.00;;
20689;SDS011;10504;48.762;8.996;2023-11-19T06:42:15;7.97;;;7.47;;
20689;SDS011;10504;48.762;8.996;2023-11-19T06:44:40;7.70;;;7.20;;
20689;SDS011;10504;48.762;8.996;2023-11-19T06:47:06;7.67;;;7.17;;
20689;SDS011;10504;48.762;8.996;2023-11-19T06:49:31;7.63;;;7.13;;
20689;SDS011;10504;48.762;8.996;2023-11-19T06:51:58;7.50;;;7.00;;
20689;SDS011;10504;48.762;8.996;2023-11-19T06:54:23;7.43;;;7.00;;
20689;SDS011;10504;48.762;8.996;2023-11-19T06:56:49;7.80;;;7.30;;
20689;SDS011;10504;48.762;8.996;2023-11-19T06:59:15;7.80;;;7.30;;
20689;SDS011;10504;48.762;8.996;2023-11-19T07:01:40;7.93;;;7.43;;
20689;SDS011;10504;48.762;8.996;2023-11-19T07:04:10;7.70;;;7.20;;
20689;SDS011;10504;48.762;8.996;2023-11-19T07:06:38;7.23;;;6.83;;
20689;SDS011;10504;48.762;8.996;2023-11-19T07:09:07;7.60;;;7.10;;
20689;SDS011;10504;48.762;8.996;2023-11-19T07:11:36;7.60;;;7.10;;
20689;SDS011;10504;48.762;8.996;2023-11-19T07:14:05;7.20;;;6.80;;
20689;SDS011;10504;48.762;8.996;2023-11-19T07:16:32;7.60;;;7.10;;
20689;SDS011;10504;48.762;8.996;2023-11-19T07:19:05;7.80;;;7.30;;
20689;SDS011;10504;48.762;8.996;2023-11-19T07:21:31;7.57;;;7.07;;
20689;SDS011;10504;48.762;8.996;2023-11-19T07:23:58;7.63;;;7.13;;
20689;SDS011;10504;48.762;8.996;2023-11-19T07:26:24;7.40;;;7.00;;
20689;SDS011;10504;48.762;8.996;2023-11-19T07:28:50;7.20;;;6.80;;
20689;SDS011;10504;48.762;8.996;2023-11-19T07:31:16;7.70;;;7.20;;
20689;SDS011;10504;48.762;8.996;2023-11-19T07:33:44;7.70;;;7.20;;
20689;SDS011;10504;48.762;8.996;2023-11-19T07:36:13;7.80;;;7.30;;
20689;SDS011;10504;48.762;8.996;2023-11-19T07:38:39;7.90;;;7.40;;
20689;SDS011;10504;48.762;8.996;2023-11-19T07:41:05;7.70;;;7.20;;
20689;SDS011;10504;48.762;8.996;2023-11-19T07:43:31;7.60;;;7.10;;
20689;SDS011;10504;48.762;8.996;2023-11-19T07:45:57;7.90;;;7.40;;
20689;SDS011;10504;48.762;8.996;2023-11-19T07:48:24;7.50;;;7.00;;
20689;SDS011;10504;48.762;8.996;2023-11-19T07:50:51;7.90;;;7.40;;
20689;SDS011;10504;48.762;8.996;2023-11-19T07:53:18;8.53;;;8.00;;
20689;SDS011;10504;48.762;8.996;2023-11-19T07:55:44;8.00;;;7.50;;
20689;SDS011;10504;48.762;8.996;2023-11-19T07:58:10;7.90;;;7.40;;
20689;SDS011;10504;48.762;8.996;2023-11-19T08:00:37;7.23;;;6.83;;
20689;SDS011;10504;48.762;8.996;2023-11-19T08:03:06;7.50;;;7.00;;
20689;SDS011;10504;48.762;8.996;2023-11-19T08:05:31;7.80;;;7.30;;
20689;SDS011;10504;48.762;8.996;2023-11-19T08:07:57;7.70;;;7.20;;
20689;SDS011;10504;48.762;8.996;2023-11-19T08:10:23;7.63;;;7.13;;
20689;SDS011;10504;48.762;8.996;2023-11-19T08:12:49;7.77;;;7.27;;
20689;SDS011;10504;48.762;8.996;2023-11-19T08:15:14;7.60;;;7.10;;
20689;SDS011;10504;48.762;8.996;2023-11-19T08:17:41;7.90;;;7.40;;
20689;SDS011;10504;48.762;8.996;2023-11-19T08:20:08;7.73;;;7.23;;
20689;SDS011;10504;48.762;8.996;2023-11-19T08:22:37;7.80;;;7.30;;
20689;SDS011;10504;48.762;8.996;2023-11-19T08:25:06;7.60;;;7.10;;
20689;SDS011;10504;48.762;8.996;2023-11-19T08:27:33;7.57;;;7.07;;
20689;SDS011;10504;48.762;8.996;2023-11-19T08:29:58;7.90;;;7.40;;
20689;SDS011;10504;48.762;8.996;2023-11-19T08:32:24;7.70;;;7.20;;
20689;SDS011;10504;48.762;8.996;2023-11-19T08:34:51;8.10;;;7.60;;
20689;SDS011;10504;48.762;8.996;2023-11-19T08:37:17;8.03;;;7.53;;
20689;SDS011;10504;48.762;8.996;2023-11-19T08:39:47;7.90;;;7.40;;
20689;SDS011;10504;48.762;8.996;2023-11-19T08:42:13;8.10;;;7.60;;
20689;SDS011;10504;48.762;8.996;2023-11-19T08:44:39;8.40;;;7.90;;
20689;SDS011;10504;48.762;8.996;2023-11-19T08:47:08;8.10;;;7.60;;
20689;SDS011;10504;48.762;8.996;2023-11-19T08:49:34;7.60;;;7.10;;
20689;SDS011;10504;48.762;8.996;2023-11-19T08:52:00;7.70;;;7.20;;
20689;SDS011;10504;48.762;8.996;2023-11-19T08:54:26;7.20;;;6.80;;
20689;SDS011;10504;48.762;8.996;2023-11-19T08:56:52;7.70;;;7.20;;
20689;SDS011;10504;48.762;8.996;2023-11-19T08:59:18;7.30;;;6.90;;
20689;SDS011;10504;48.762;8.996;2023-11-19T09:01:44;7.60;;;7.10;;
20689;SDS011;10504;48.762;8.996;2023-11-19T09:04:09;7.87;;;7.37;;
20689;SDS011;10504;48.762;8.996;2023-11-19T09:06:35;7.60;;;7.10;;
20689;SDS011;10504;48.762;8.996;2023-11-19T09:09:01;7.40;;;6.97;;
20689;SDS011;10504;48.762;8.996;2023-11-19T09:11:31;8.00;;;7.50;;
20689;SDS011;10504;48.762;8.996;2023-11-19T09:13:57;7.87;;;7.37;;
20689;SDS011;10504;48.762;8.996;2023-11-19T09:16:23;7.70;;;7.20;;
20689;SDS011;10504;48.762;8.996;2023-11-19T09:18:49;7.80;;;7.30;;
20689;SDS011;10504;48.762;8.996;2023-11-19T09:21:15;7.50;;;7.00;;
20689;SDS011;10504;48.762;8.996;2023-11-19T09:23:40;7.70;;;7.20;;
20689;SDS011;10504;48.762;8.996;2023-11-19T09:26:06;7.30;;;6.90;;
20689;SDS011;10504;48.762;8.996;2023-11-19T09:28:35;7.60;;;7.10;;
20689;SDS011;10504;48.762;8.996;2023-11-19T09:31:00;7.60;;;7.10;;
20689;SDS011;10504;48.762;8.996;2023-11-19T09:33:29;7.10;;;6.70;;
20689;SDS011;10504;48.762;8.996;2023-11-19T09:35:55;7.50;;;7.00;;
20689;SDS011;10504;48.762;8.996;2023-11-19T09:38:21;6.80;;;6.40;;
20689;SDS011;10504;48.762;8.996;2023-11-19T09:40:46;6.20;;;5.80;;
20689;SDS011;10504;48.762;8.996;2023-11-19T09:43:12;6.40;;;6.00;;
20689;SDS011;10504;48.762;8.996;2023-11-19T09:45:49;6.50;;;6.10;;
20689;SDS011;10504;48.762;8.996;2023-11-19T09:48:19;6.60;;;6.20;;
20689;SDS011;10504;48.762;8.996;2023-11-19T09:50:48;6.20;;;5.80;;
20689;SDS011;10504;48.762;8.996;2023-11-19T09:53:15;6.20;;;5.80;;
20689;SDS011;10504;48.762;8.996;2023-11-19T09:55:45;6.30;;;5.90;;
20689;SDS011;10504;48.762;8.996;2023-11-19T09:58:14;5.70;;;5.40;;
20689;SDS011;10504;48.762;8.996;2023-11-19T10:00:42;6.20;;;5.80;;
20689;SDS011;10504;48.762;8.996;2023-11-19T10:03:08;6.47;;;6.07;;
20689;SDS011;10504;48.762;8.996;2023-11-19T10:05:37;6.10;;;5.70;;
20689;SDS011;10504;48.762;8.996;2023-11-19T10:08:04;5.83;;;5.53;;
20689;SDS011;10504;48.762;8.996;2023-11-19T10:10:30;6.93;;;6.47;;
20689;SDS011;10504;48.762;8.996;2023-11-19T10:12:58;7.27;;;6.77;;
20689;SDS011;10504;48.762;8.996;2023-11-19T10:15:25;6.60;;;6.20;;
20689;SDS011;10504;48.762;8.996;2023-11-19T10:17:52;6.60;;;6.20;;
20689;SDS011;10504;48.762;8.996;2023-11-19T10:20:21;7.40;;;6.90;;
20689;SDS011;10504;48.762;8.996;2023-11-19T10:22:47;7.00;;;6.60;;
20689;SDS011;10504;48.762;8.996;2023-11-19T10:25:22;7.60;;;7.10;;
20689;SDS011;10504;48.762;8.996;2023-11-19T10:27:50;7.40;;;7.00;;
20689;SDS011;10504;48.762;8.996;2023-11-19T10:30:34;8.40;;;7.90;;
20689;SDS011;10504;48.762;8.996;2023-11-19T10:33:06;8.20;;;7.70;;
20689;SDS011;10504;48.762;8.996;2023-11-19T10:35:53;8.20;;;7.70;;
20689;SDS011;10504;48.762;8.996;2023-11-19T10:38:20;8.53;;;7.93;;
20689;SDS011;10504;48.762;8.996;2023-11-19T10:40:49;8.40;;;7.90;;
20689;SDS011;10504;48.762;8.996;2023-11-19T10:43:21;10.47;;;9.67;;
20689;SDS011;10504;48.762;8.996;2023-11-19T10:45:48;8.60;;;8.00;;
20689;SDS011;10504;48.762;8.996;2023-11-19T10:48:14;8.30;;;7.80;;
20689;SDS011;10504;48.762;8.996;2023-11-19T10:50:40;9.30;;;8.70;;
20689;SDS011;10504;48.762;8.996;2023-11-19T10:53:07;7.63;;;7.13;;
20689;SDS011;10504;48.762;8.996;2023-11-19T10:55:35;8.23;;;7.73;;
20689;SDS011;10504;48.762;8.996;2023-11-19T10:58:05;8.50;;;8.00;;
20689;SDS011;10504;48.762;8.996;2023-11-19T11:00:54;8.57;;;8.07;;
20689;SDS011;10504;48.762;8.996;2023-11-19T11:03:25;8.50;;;8.00;;
20689;SDS011;10504;48.762;8.996;2023-11-19T11:05:56;8.40;;;7.90;;
20689;SDS011;10504;48.762;8.996;2023-11-19T11:08:23;8.60;;;8.10;;
20689;SDS011;10504;48.762;8.996;2023-11-19T11:10:52;8.50;;;8.00;;
20689;SDS011;10504;48.762;8.996;2023-11-19T11:13:20;8.57;;;8.07;;
20689;SDS011;10504;48.762;8.996;2023-11-19T11:15:49;9.00;;;8.40;;
20689;SDS011;10504;48.762;8.996;2023-11-19T11:18:15;7.90;;;7.40;;
20689;SDS011;10504;48.762;8.996;2023-11-19T11:20:42;7.90;;;7.40;;
20689;SDS011;10504;48.762;8.996;2023-11-19T11:28:43;7.13;;;6.73;;
20689;SDS011;10504;48.762;8.996;2023-11-19T11:39:45;7.60;;;7.10;;
20689;SDS011;10504;48.762;8.996;2023-11-19T11:50:08;6.90;;;6.50;;
20689;SDS011;10504;48.762;8.996;2023-11-19T11:55:24;6.57;;;6.17;;
20689;SDS011;10504;48.762;8.996;2023-11-19T11:57:51;6.30;;;5.90;;
20689;SDS011;10504;48.762;8.996;2023-11-19T12:03:01;7.10;;;6.70;;
20689;SDS011;10504;48.762;8.996;2023-11-19T12:05:32;6.63;;;6.23;;
20689;SDS011;10504;48.762;8.996;2023-11-19T12:08:02;6.43;;;6.03;;
20689;SDS011;10504;48.762;8.996;2023-11-19T12:10:51;5.60;;;5.30;;
20689;SDS011;10504;48.762;8.996;2023-11-19T12:13:17;6.10;;;5.70;;
20689;SDS011;10504;48.762;8.996;2023-11-19T12:16:26;5.70;;;5.40;;
20689;SDS011;10504;48.762;8.996;2023-11-19T12:18:33;5.40;;;5.10;;
20689;SDS011;10504;48.762;8.996;2023-11-19T12:20:59;5.27;;;4.97;;
20689;SDS011;10504;48.762;8.996;2023-11-19T12:23:28;5.10;;;4.80;;
20689;SDS011;10504;48.762;8.996;2023-11-19T12:25:54;4.30;;;4.10;;
20689;SDS011;10504;48.762;8.996;2023-11-19T12:28:21;4.30;;;4.00;;
20689;SDS011;10504;48.762;8.996;2023-11-19T12:30:51;3.90;;;3.70;;
20689;SDS011;10504;48.762;8.996;2023-11-19T12:33:18;3.50;;;3.30;;
20689;SDS011;10504;48.762;8.996;2023-11-19T12:35:47;4.17;;;3.87;;
20689;SDS011;10504;48.762;8.996;2023-11-19T12:38:20;3.70;;;3.50;;
20689;SDS011;10504;48.762;8.996;2023-11-19T12:40:46;3.53;;;3.33;;
20689;SDS011;10504;48.762;8.996;2023-11-19T12:43:21;3.90;;;3.70;;
20689;SDS011;10504;48.762;8.996;2023-11-19T12:45:47;3.53;;;3.33;;
20689;SDS011;10504;48.762;8.996;2023-11-19T12:48:13;3.43;;;3.23;;
20689;SDS011;10504;48.762;8.996;2023-11-19T12:50:52;3.50;;;3.30;;
20689;SDS011;10504;48.762;8.996;2023-11-19T12:53:27;3.57;;;3.37;;
20689;SDS011;10504;48.762;8.996;2023-11-19T12:55:54;3.87;;;3.57;;
20689;SDS011;10504;48.762;8.996;2023-11-19T13:03:34;3.40;;;3.20;;
20689;SDS011;10504;48.762;8.996;2023-11-19T13:06:04;3.23;;;3.03;;
20689;SDS011;10504;48.762;8.996;2023-11-19T13:08:45;3.20;;;3.00;;
20689;SDS011;10504;48.762;8.996;2023-11-19T13:11:33;3.07;;;2.93;;
20689;SDS011;10504;48.762;8.996;2023-11-19T13:14:03;3.20;;;3.00;;
20689;SDS011;10504;48.762;8.996;2023-11-19T13:16:29;3.00;;;2.90;;
20689;SDS011;10504;48.762;8.996;2023-11-19T13:18:56;2.90;;;2.80;;
20689;SDS011;10504;48.762;8.996;2023-11-19T13:21:23;2.70;;;2.60;;
20689;SDS011;10504;48.762;8.996;2023-11-19T13:23:48;3.00;;;2.90;;
20689;SDS011;10504;48.762;8.996;2023-11-19T13:26:15;2.90;;;2.80;;
20689;SDS011;10504;48.762;8.996;2023-11-19T13:28:41;2.70;;;2.60;;
20689;SDS011;10504;48.762;8.996;2023-11-19T13:31:09;2.80;;;2.70;;
20689;SDS011;10504;48.762;8.996;2023-11-19T13:33:35;2.53;;;2.43;;
20689;SDS011;10504;48.762;8.996;2023-11-19T13:36:01;2.70;;;2.60;;
20689;SDS011;10504;48.762;8.996;2023-11-19T13:38:33;2.47;;;2.37;;
20689;SDS011;10504;48.762;8.996;2023-11-19T13:41:03;2.40;;;2.30;;
20689;SDS011;10504;48.762;8.996;2023-11-19T13:43:34;2.40;;;2.30;;
20689;SDS011;10504;48.762;8.996;2023-11-19T13:45:59;2.70;;;2.60;;
20689;SDS011;10504;48.762;8.996;2023-11-19T13:48:25;2.40;;;2.30;;
20689;SDS011;10504;48.762;8.996;2023-11-19T13:50:52;2.47;;;2.37;;
20689;SDS011;10504;48.762;8.996;2023-11-19T13:53:21;2.30;;;2.20;;
20689;SDS011;10504;48.762;8.996;2023-11-19T13:55:48;2.80;;;2.60;;
20689;SDS011;10504;48.762;8.996;2023-11-19T13:58:13;2.50;;;2.40;;
20689;SDS011;10504;48.762;8.996;2023-11-19T14:00:39;2.50;;;2.40;;
20689;SDS011;10504;48.762;8.996;2023-11-19T14:03:07;2.33;;;2.23;;
20689;SDS011;10504;48.762;8.996;2023-11-19T14:05:32;2.77;;;2.57;;
20689;SDS011;10504;48.762;8.996;2023-11-19T14:07:58;2.60;;;2.40;;
20689;SDS011;10504;48.762;8.996;2023-11-19T14:10:23;2.20;;;2.10;;
20689;SDS011;10504;48.762;8.996;2023-11-19T14:12:49;2.30;;;2.20;;
20689;SDS011;10504;48.762;8.996;2023-11-19T14:15:17;2.50;;;2.40;;
20689;SDS011;10504;48.762;8.996;2023-11-19T14:17:43;2.40;;;2.30;;
20689;SDS011;10504;48.762;8.996;2023-11-19T14:20:09;2.30;;;2.20;;
20689;SDS011;10504;48.762;8.996;2023-11-19T14:22:41;2.50;;;2.40;;
20689;SDS011;10504;48.762;8.996;2023-11-19T14:25:08;2.47;;;2.37;;
20689;SDS011;10504;48.762;8.996;2023-11-19T14:27:37;2.80;;;2.70;;
20689;SDS011;10504;48.762;8.996;2023-11-19T14:30:05;2.80;;;2.60;;
20689;SDS011;10504;48.762;8.996;2023-11-19T14:32:31;3.03;;;2.83;;
20689;SDS011;10504;48.762;8.996;2023-11-19T14:34:57;2.97;;;2.77;;
20689;SDS011;10504;48.762;8.996;2023-11-19T14:37:23;2.20;;;2.10;;
20689;SDS011;10504;48.762;8.996;2023-11-19T14:39:49;2.30;;;2.20;;
20689;SDS011;10504;48.762;8.996;2023-11-19T14:42:17;2.30;;;2.20;;
20689;SDS011;10504;48.762;8.996;2023-11-19T14:44:43;2.30;;;2.20;;
20689;SDS011;10504;48.762;8.996;2023-11-19T14:47:09;2.10;;;2.00;;
20689;SDS011;10504;48.762;8.996;2023-11-19T14:49:35;2.20;;;2.10;;
20689;SDS011;10504;48.762;8.996;2023-11-19T14:52:02;2.00;;;1.90;;
20689;SDS011;10504;48.762;8.996;2023-11-19T14:54:28;1.90;;;1.80;;
20689;SDS011;10504;48.762;8.996;2023-11-19T14:56:54;2.57;;;2.33;;
20689;SDS011;10504;48.762;8.996;2023-11-19T14:59:19;1.93;;;1.83;;
20689;SDS011;10504;48.762;8.996;2023-11-19T15:01:45;2.00;;;1.90;;
20689;SDS011;10504;48.762;8.996;2023-11-19T15:04:11;2.10;;;2.00;;
20689;SDS011;10504;48.762;8.996;2023-11-19T15:06:37;2.20;;;2.10;;
20689;SDS011;10504;48.762;8.996;2023-11-19T15:09:03;2.17;;;2.07;;
20689;SDS011;10504;48.762;8.996;2023-11-19T15:11:30;2.50;;;2.30;;
20689;SDS011;10504;48.762;8.996;2023-11-19T15:13:56;2.30;;;2.20;;
20689;SDS011;10504;48.762;8.996;2023-11-19T15:16:21;2.20;;;2.10;;
20689;SDS011;10504;48.762;8.996;2023-11-19T15:18:56;2.00;;;1.90;;
20689;SDS011;10504;48.762;8.996;2023-11-19T15:21:25;4.40;;;2.70;;